Time;durP1;ratioP1;P1;durP2;ratioP2;P2;SDS_P1;SDS_P2;PMS_P1;PMS_P2;Temp;Humidity;BMP_temperature;BMP_pressure;BME280_temperature;BME280_humidity;BME280_pressure;Samples;Min_cycle;Max_cycle;Signal;HPM_P1;HPM_P2
2023/11/19 00:02:00;;;;;;;;;;;;;;;;;;5052065;28;20391;-46
2023/11/19 00:04:26;;;;;;;;;;;;;;;;;;5052189;28;19959;-46
2023/11/19 00:06:52;;;;;;;;;;;;;;;;;;5051062;28;19909;-46
2023/11/19 00:09:18;;;;;;;;;;;;;;;;;;5050698;28;19909;-46
2023/11/19 00:11:44;;;;;;;;;;;;;;;;;;5125071;22;20019;-62
2023/11/19 00:14:10;;;;;;;;;;;;;;;;;;5074210;28;19934;-62
2023/11/19 00:16:36;;;;;;;;;;;;;;;;;;5092508;28;20377;-61
2023/11/19 00:19:04;;;;;;;;;;;;;;;;;;5092285;28;19912;-63
2023/11/19 00:21:30;;;;;;;;;;;;;;;;;;5076261;28;19908;-61
2023/11/19 00:23:57;;;;;;;;;;;;;;;;;;5071828;28;19911;-62
2023/11/19 00:26:23;;;;;;;;;;;;;;;;;;5071790;28;20294;-55
2023/11/19 00:28:52;;;;;;;;;;;;;;;;;;5072043;28;20131;-61
2023/11/19 00:31:18;;;;;;;;;;;;;;;;;;5053800;28;19908;-62
2023/11/19 00:33:45;;;;;;;;;;;;;;;;;;5071913;28;19991;-63
2023/11/19 00:36:12;;;;;;;;;;;;;;;;;;5053756;28;19912;-60
2023/11/19 00:38:38;;;;;;;;;;;;;;;;;;5053772;28;20340;-63
2023/11/19 00:41:04;;;;;;;;;;;;;;;;;;5037096;28;19909;-62
2023/11/19 00:43:30;;;;;;;;;;;;;;;;;;5053906;28;19987;-59
2023/11/19 00:45:56;;;;;;;;;;;;;;;;;;5071849;28;19915;-58
2023/11/19 00:48:22;;;;;;;;;;;;;;;;;;5071788;28;19999;-56
2023/11/19 00:50:49;;;;;;;;;;;;;;;;;;5053420;28;19908;-61
2023/11/19 00:53:15;;;;;;;;;;;;;;;;;;5070107;28;20188;-58
2023/11/19 00:55:41;;;;;;;;;;;;;;;;;;5060330;28;19909;-62
2023/11/19 00:58:07;;;;;;;;;;;;;;;;;;5071772;28;19944;-58
2023/11/19 01:00:34;;;;;;;;;;;;;;;;;;5070513;28;20288;-58
2023/11/19 01:03:01;;;;;;;;;;;;;;;;;;5049925;28;19908;-56
2023/11/19 01:05:28;;;;;;;;;;;;;;;;;;5036999;28;19908;-56
2023/11/19 01:07:54;;;;;;;;;;;;;;;;;;5051912;28;19919;-61
2023/11/19 01:10:20;;;;;;;;;;;;;;;;;;5036790;28;19996;-57
2023/11/19 01:12:46;;;;;;;;;;;;;;;;;;5032615;28;20433;-60
2023/11/19 01:15:13;;;;;;;;;;;;;;;;;;5033742;28;19917;-59
2023/11/19 01:17:39;;;;;;;;;;;;;;;;;;5034691;28;19908;-57
2023/11/19 01:20:07;;;;;;;;;;;;;;;;;;5033450;28;19912;-59
2023/11/19 01:22:33;;;;;;;;;;;;;;;;;;5055873;28;19920;-57
2023/11/19 01:25:00;;;;;;;;;;;;;;;;;;5055840;28;19962;-59
2023/11/19 01:27:46;;;;;;;;;;;;;;;;;;5071478;28;20278;-57
2023/11/19 01:30:12;;;;;;;;;;;;;;;;;;5055346;28;19913;-60
2023/11/19 01:32:39;;;;;;;;;;;;;;;;;;5045211;28;19957;-58
2023/11/19 01:35:05;;;;;;;;;;;;;;;;;;5038194;28;19909;-58
2023/11/19 01:37:32;;;;;;;;;;;;;;;;;;5025322;28;19908;-61
2023/11/19 01:39:58;;;;;;;;;;;;;;;;;;5054801;28;19908;-59
2023/11/19 01:42:25;;;;;;;;;;;;;;;;;;5036914;28;20015;-60
2023/11/19 01:44:51;;;;;;;;;;;;;;;;;;5021552;28;20023;-59
2023/11/19 01:47:18;;;;;;;;;;;;;;;;;;5036732;28;19913;-60
2023/11/19 01:49:46;;;;;;;;;;;;;;;;;;5055793;28;19916;-58
2023/11/19 01:52:12;;;;;;;;;;;;;;;;;;5062024;28;19915;-59
2023/11/19 01:54:38;;;;;;;;;;;;;;;;;;5062542;28;19948;-60
2023/11/19 01:57:04;;;;;;;;;;;;;;;;;;5036730;28;19917;-59
2023/11/19 01:59:30;;;;;;;;;;;;;;;;;;5048578;28;19908;-59
2023/11/19 02:01:56;;;;;;;;;;;;;;;;;;5036297;28;20267;-60
2023/11/19 02:04:23;;;;;;;;;;;;;;;;;;5063538;28;20373;-58
2023/11/19 02:06:49;;;;;;;;;;;;;;;;;;5037896;28;19909;-58
2023/11/19 02:09:19;;;;;;;;;;;;;;;;;;5039186;28;19916;-60
2023/11/19 02:11:45;;;;;;;;;;;;;;;;;;5037269;28;19919;-58
2023/11/19 02:14:11;;;;;;;;;;;;;;;;;;5061081;28;19912;-60
2023/11/19 02:16:37;;;;;;;;;;;;;;;;;;5054313;28;20354;-58
2023/11/19 02:19:05;;;;;;;;;;;;;;;;;;5055704;28;20381;-59
2023/11/19 02:21:31;;;;;;;;;;;;;;;;;;5055692;28;19908;-60
2023/11/19 02:23:58;;;;;;;;;;;;;;;;;;5049449;28;19916;-60
2023/11/19 02:26:24;;;;;;;;;;;;;;;;;;5044140;28;19908;-59
2023/11/19 02:28:50;;;;;;;;;;;;;;;;;;5041319;28;19931;-59
2023/11/19 02:31:17;;;;;;;;;;;;;;;;;;5035822;28;19983;-59
2023/11/19 02:33:43;;;;;;;;;;;;;;;;;;5038348;28;19916;-60
2023/11/19 02:36:09;;;;;;;;;;;;;;;;;;5055557;28;20058;-60
2023/11/19 02:38:35;;;;;;;;;;;;;;;;;;5050258;28;19908;-60
2023/11/19 02:41:02;;;;;;;;;;;;;;;;;;5018123;28;20387;-59
2023/11/19 02:43:28;;;;;;;;;;;;;;;;;;5070612;28;19994;-60
2023/11/19 02:45:55;;;;;;;;;;;;;;;;;;5051290;28;19908;-60
2023/11/19 02:48:21;;;;;;;;;;;;;;;;;;5073366;28;19961;-60
2023/11/19 02:50:47;;;;;;;;;;;;;;;;;;5028905;28;19928;-60
2023/11/19 02:53:13;;;;;;;;;;;;;;;;;;5046711;28;19909;-62
2023/11/19 02:55:40;;;;;;;;;;;;;;;;;;5053449;28;19912;-61
2023/11/19 02:58:19;;;;;;;;;;;;;;;;;;5034076;28;19916;-60
2023/11/19 03:00:52;;;;;;;;;;;;;;;;;;5055159;28;19909;-61
2023/11/19 03:03:20;;;;;;;;;;;;;;;;;;5055432;28;19940;-61
2023/11/19 03:05:46;;;;;;;;;;;;;;;;;;5055393;28;19916;-62
2023/11/19 03:08:12;;;;;;;;;;;;;;;;;;5073198;28;19912;-62
2023/11/19 03:10:38;;;;;;;;;;;;;;;;;;5036515;28;19960;-61
2023/11/19 03:13:04;;;;;;;;;;;;;;;;;;5035277;28;19905;-62
2023/11/19 03:15:31;;;;;;;;;;;;;;;;;;5035152;28;19958;-63
2023/11/19 03:17:57;;;;;;;;;;;;;;;;;;5035218;28;19990;-61
2023/11/19 03:20:27;;;;;;;;;;;;;;;;;;5052902;28;19915;-63
2023/11/19 03:22:53;;;;;;;;;;;;;;;;;;5034890;28;20378;-62
2023/11/19 03:25:19;;;;;;;;;;;;;;;;;;5034997;28;19908;-62
2023/11/19 03:27:45;;;;;;;;;;;;;;;;;;5052791;28;19916;-63
2023/11/19 03:30:12;;;;;;;;;;;;;;;;;;5035224;28;19924;-62
2023/11/19 03:32:39;;;;;;;;;;;;;;;;;;5034739;28;20367;-62
2023/11/19 03:35:07;;;;;;;;;;;;;;;;;;5052714;28;19908;-63
2023/11/19 03:37:33;;;;;;;;;;;;;;;;;;5052650;28;20301;-62
2023/11/19 03:39:59;;;;;;;;;;;;;;;;;;5052756;28;20282;-62
2023/11/19 03:42:25;;;;;;;;;;;;;;;;;;5034511;28;20031;-61
2023/11/19 03:44:52;;;;;;;;;;;;;;;;;;5052713;28;19904;-61
2023/11/19 03:47:18;;;;;;;;;;;;;;;;;;5053909;28;19915;-62
2023/11/19 03:49:44;;;;;;;;;;;;;;;;;;5037887;28;19908;-62
2023/11/19 03:52:10;;;;;;;;;;;;;;;;;;5050874;28;19908;-61
2023/11/19 03:54:36;;;;;;;;;;;;;;;;;;5018398;28;20278;-60
2023/11/19 03:57:03;;;;;;;;;;;;;;;;;;5034331;28;19923;-62
2023/11/19 03:59:29;;;;;;;;;;;;;;;;;;5068773;28;19962;-62
2023/11/19 04:01:56;;;;;;;;;;;;;;;;;;5043067;28;19915;-62
2023/11/19 04:04:22;;;;;;;;;;;;;;;;;;5054242;28;19943;-59
2023/11/19 04:06:48;;;;;;;;;;;;;;;;;;5059259;28;20168;-58
2023/11/19 04:09:14;;;;;;;;;;;;;;;;;;5052116;28;19912;-58
2023/11/19 04:11:40;;;;;;;;;;;;;;;;;;5033949;28;19916;-56
2023/11/19 04:14:06;;;;;;;;;;;;;;;;;;5034284;28;19913;-60
2023/11/19 04:16:32;;;;;;;;;;;;;;;;;;5063779;28;19916;-60
2023/11/19 04:18:58;;;;;;;;;;;;;;;;;;5051946;28;19935;-58
2023/11/19 04:21:25;;;;;;;;;;;;;;;;;;5043279;28;20274;-60
2023/11/19 04:23:51;;;;;;;;;;;;;;;;;;5072251;28;19961;-60
2023/11/19 04:26:17;;;;;;;;;;;;;;;;;;5055747;28;19962;-60
2023/11/19 04:28:43;;;;;;;;;;;;;;;;;;5034133;28;19909;-59
2023/11/19 04:31:09;;;;;;;;;;;;;;;;;;5051670;28;20282;-59
2023/11/19 04:33:35;;;;;;;;;;;;;;;;;;5051873;28;19967;-60
2023/11/19 04:36:02;;;;;;;;;;;;;;;;;;5051563;28;19916;-60
2023/11/19 04:38:28;;;;;;;;;;;;;;;;;;5049898;28;20001;-59
2023/11/19 04:40:57;;;;;;;;;;;;;;;;;;5071572;28;19909;-60
2023/11/19 04:43:23;;;;;;;;;;;;;;;;;;5071945;28;19912;-59
2023/11/19 04:45:49;;;;;;;;;;;;;;;;;;5071876;28;19916;-59
2023/11/19 04:48:15;;;;;;;;;;;;;;;;;;5071835;28;19915;-58
2023/11/19 04:50:41;;;;;;;;;;;;;;;;;;5053745;28;19916;-58
2023/11/19 04:53:07;;;;;;;;;;;;;;;;;;5072055;28;19909;-58
2023/11/19 04:55:33;;;;;;;;;;;;;;;;;;5071821;28;19959;-56
2023/11/19 04:57:59;;;;;;;;;;;;;;;;;;5072028;28;20255;-59
2023/11/19 05:00:25;;;;;;;;;;;;;;;;;;5071972;28;20378;-58
2023/11/19 05:02:51;;;;;;;;;;;;;;;;;;5071655;28;20015;-57
2023/11/19 05:05:18;;;;;;;;;;;;;;;;;;5073983;28;19908;-58
2023/11/19 05:07:44;;;;;;;;;;;;;;;;;;5075567;28;19909;-60
2023/11/19 05:10:10;;;;;;;;;;;;;;;;;;5057413;28;19908;-59
2023/11/19 05:12:36;;;;;;;;;;;;;;;;;;5075418;28;20331;-60
2023/11/19 05:15:02;;;;;;;;;;;;;;;;;;5069930;28;20387;-59
2023/11/19 05:17:28;;;;;;;;;;;;;;;;;;5073131;28;19916;-59
2023/11/19 05:19:54;;;;;;;;;;;;;;;;;;5074716;28;19961;-60
2023/11/19 05:22:20;;;;;;;;;;;;;;;;;;5065641;28;19908;-59
2023/11/19 05:24:48;;;;;;;;;;;;;;;;;;5063942;28;19908;-62
2023/11/19 05:27:14;;;;;;;;;;;;;;;;;;5075199;28;19908;-61
2023/11/19 05:29:41;;;;;;;;;;;;;;;;;;5027738;28;20294;-62
2023/11/19 05:32:07;;;;;;;;;;;;;;;;;;5055068;28;20007;-58
2023/11/19 05:34:33;;;;;;;;;;;;;;;;;;5055142;28;19959;-61
2023/11/19 05:36:59;;;;;;;;;;;;;;;;;;5055181;28;20298;-59
2023/11/19 05:39:25;;;;;;;;;;;;;;;;;;5055004;28;20365;-58
2023/11/19 05:41:51;;;;;;;;;;;;;;;;;;5067716;28;20042;-58
2023/11/19 05:44:18;;;;;;;;;;;;;;;;;;5057098;28;19909;-59
2023/11/19 05:46:44;;;;;;;;;;;;;;;;;;5074875;28;19908;-61
2023/11/19 05:49:10;;;;;;;;;;;;;;;;;;5074838;28;20007;-59
2023/11/19 05:51:37;;;;;;;;;;;;;;;;;;5074616;28;19948;-59
2023/11/19 05:54:03;;;;;;;;;;;;;;;;;;5074791;28;20321;-58
2023/11/19 05:56:32;;;;;;;;;;;;;;;;;;5074586;28;20458;-59
2023/11/19 05:59:00;;;;;;;;;;;;;;;;;;5074835;28;19915;-60
2023/11/19 06:01:26;;;;;;;;;;;;;;;;;;5074427;28;20317;-57
2023/11/19 06:03:52;;;;;;;;;;;;;;;;;;5074675;28;19916;-59
2023/11/19 06:06:20;;;;;;;;;;;;;;;;;;5074557;28;19909;-54
2023/11/19 06:08:46;;;;;;;;;;;;;;;;;;5074509;28;19912;-58
2023/11/19 06:11:18;;;;;;;;;;;;;;;;;;5107609;22;19921;-46
2023/11/19 06:13:46;;;;;;;;;;;;;;;;;;5054567;28;19916;-46
2023/11/19 06:16:13;;;;;;;;;;;;;;;;;;5054175;28;19923;-46
2023/11/19 06:18:43;;;;;;;;;;;;;;;;;;5054222;28;19908;-46
2023/11/19 06:21:09;;;;;;;;;;;;;;;;;;5052969;28;19912;-46
2023/11/19 06:23:36;;;;;;;;;;;;;;;;;;5054251;28;19909;-49
2023/11/19 06:26:27;;;;;;;;;;;;;;;;;;5054251;28;20381;-46
2023/11/19 06:28:55;;;;;;;;;;;;;;;;;;5053800;28;19916;-48
2023/11/19 06:31:48;;;;;;;;;;;;;;;;;;5053944;28;20470;-49
2023/11/19 06:34:14;;;;;;;;;;;;;;;;;;5052551;28;20389;-46
2023/11/19 06:37:05;;;;;;;;;;;;;;;;;;5043964;28;20386;-46
2023/11/19 06:39:35;;;;;;;;;;;;;;;;;;5052796;28;19915;-45
2023/11/19 06:42:26;;;;;;;;;;;;;;;;;;5019953;28;19974;-43
2023/11/19 06:44:54;;;;;;;;;;;;;;;;;;5016400;28;20371;-43
2023/11/19 06:47:45;;;;;;;;;;;;;;;;;;5024973;28;20008;-45
2023/11/19 06:50:12;;;;;;;;;;;;;;;;;;5034710;28;20374;-44
2023/11/19 06:52:40;;;;;;;;;;;;;;;;;;5035887;28;19913;-43
2023/11/19 06:55:06;;;;;;;;;;;;;;;;;;5035614;28;19947;-43
2023/11/19 06:57:57;;;;;;;;;;;;;;;;;;5053504;28;19963;-45
2023/11/19 07:00:24;;;;;;;;;;;;;;;;;;5035513;28;19915;-43
2023/11/19 07:03:15;;;;;;;;;;;;;;;;;;5053177;28;19916;-42
2023/11/19 07:05:41;;;;;;;;;;;;;;;;;;5035575;28;19908;-43
2023/11/19 07:08:07;;;;;;;;;;;;;;;;;;5052632;28;19916;-43
2023/11/19 07:10:33;;;;;;;;;;;;;;;;;;5052160;28;19919;-43
2023/11/19 07:13:00;;;;;;;;;;;;;;;;;;5052628;28;20386;-46
2023/11/19 07:15:28;;;;;;;;;;;;;;;;;;5052940;28;19958;-49
2023/11/19 07:18:21;;;;;;;;;;;;;;;;;;5052825;28;19915;-47
2023/11/19 07:20:49;;;;;;;;;;;;;;;;;;5052678;28;20363;-46
2023/11/19 07:23:21;;;;;;;;;;;;;;;;;;5052563;28;20329;-46
2023/11/19 07:25:48;;;;;;;;;;;;;;;;;;5035197;28;19916;-46
2023/11/19 07:28:14;;;;;;;;;;;;;;;;;;5049854;28;19916;-48
2023/11/19 07:30:41;;;;;;;;;;;;;;;;;;5052163;28;19955;-46
2023/11/19 07:33:09;;;;;;;;;;;;;;;;;;5034377;28;19970;-45
2023/11/19 07:36:01;;;;;;;;;;;;;;;;;;5052109;28;19919;-45
2023/11/19 07:38:30;;;;;;;;;;;;;;;;;;5033819;28;19908;-47
2023/11/19 07:41:00;;;;;;;;;;;;;;;;;;5051826;28;20298;-45
2023/11/19 07:43:26;;;;;;;;;;;;;;;;;;5051833;28;19908;-45
2023/11/19 07:45:52;;;;;;;;;;;;;;;;;;5034402;28;19998;-44
2023/11/19 07:48:43;;;;;;;;;;;;;;;;;;5038792;28;19924;-45
2023/11/19 07:51:34;;;;;;;;;;;;;;;;;;5051581;28;19959;-45
2023/11/19 07:54:01;;;;;;;;;;;;;;;;;;5051626;28;19909;-45
2023/11/19 07:56:27;;;;;;;;;;;;;;;;;;5051812;28;20019;-44
2023/11/19 07:58:55;;;;;;;;;;;;;;;;;;5038129;28;19908;-45
2023/11/19 08:01:23;;;;;;;;;;;;;;;;;;5041770;28;20366;-45
2023/11/19 08:03:49;;;;;;;;;;;;;;;;;;5047150;28;20261;-45
2023/11/19 08:06:19;;;;;;;;;;;;;;;;;;5034255;28;19916;-46
2023/11/19 08:08:45;;;;;;;;;;;;;;;;;;5051696;28;19988;-46
2023/11/19 08:11:15;;;;;;;;;;;;;;;;;;5051837;28;19935;-46
2023/11/19 08:13:41;;;;;;;;;;;;;;;;;;5051465;28;19915;-45
2023/11/19 08:16:07;;;;;;;;;;;;;;;;;;5051710;28;20301;-44
2023/11/19 08:18:59;;;;;;;;;;;;;;;;;;5051127;28;19923;-46
2023/11/19 08:21:26;;;;;;;;;;;;;;;;;;5039874;28;19987;-46
2023/11/19 08:23:52;;;;;;;;;;;;;;;;;;5051290;28;20362;-46
2023/11/19 08:26:23;;;;;;;;;;;;;;;;;;5043628;28;19909;-46
2023/11/19 08:28:49;;;;;;;;;;;;;;;;;;5051093;28;19956;-46
2023/11/19 08:31:40;;;;;;;;;;;;;;;;;;5052014;28;19916;-46
2023/11/19 08:34:08;;;;;;;;;;;;;;;;;;5051191;28;19915;-46
2023/11/19 08:36:34;;;;;;;;;;;;;;;;;;5051874;28;19909;-46
2023/11/19 08:39:00;;;;;;;;;;;;;;;;;;5051325;28;19908;-50
2023/11/19 08:41:27;;;;;;;;;;;;;;;;;;5044968;28;19908;-46
2023/11/19 08:43:53;;;;;;;;;;;;;;;;;;5055365;28;19958;-46
2023/11/19 08:46:19;;;;;;;;;;;;;;;;;;5050672;28;19915;-46
2023/11/19 08:48:45;;;;;;;;;;;;;;;;;;5055439;28;20002;-47
2023/11/19 08:51:12;;;;;;;;;;;;;;;;;;5055404;28;20013;-46
2023/11/19 08:53:37;;;;;;;;;;;;;;;;;;5038531;28;20382;-47
2023/11/19 08:56:04;;;;;;;;;;;;;;;;;;5044326;28;19956;-49
2023/11/19 08:58:30;;;;;;;;;;;;;;;;;;5055681;28;19943;-47
2023/11/19 09:00:56;;;;;;;;;;;;;;;;;;5055295;28;19913;-47
2023/11/19 09:03:22;;;;;;;;;;;;;;;;;;5055699;28;19905;-46
2023/11/19 09:05:48;;;;;;;;;;;;;;;;;;5054354;28;20298;-46
2023/11/19 09:08:14;;;;;;;;;;;;;;;;;;5055643;28;19916;-46
2023/11/19 09:10:40;;;;;;;;;;;;;;;;;;5055287;28;19916;-46
2023/11/19 09:13:07;;;;;;;;;;;;;;;;;;5055466;28;19905;-46
2023/11/19 09:15:33;;;;;;;;;;;;;;;;;;5070773;28;19917;-46
2023/11/19 09:17:59;;;;;;;;;;;;;;;;;;5055480;28;19912;-46
2023/11/19 09:20:26;;;;;;;;;;;;;;;;;;5055373;28;20385;-46
2023/11/19 09:22:52;;;;;;;;;;;;;;;;;;5055162;28;19959;-46
2023/11/19 09:25:18;;;;;;;;;;;;;;;;;;5054654;28;20379;-46
2023/11/19 09:27:44;;;;;;;;;;;;;;;;;;5053756;28;19908;-46
2023/11/19 09:30:35;;;;;;;;;;;;;;;;;;5055288;28;19931;-45
2023/11/19 09:33:26;;;;;;;;;;;;;;;;;;5054602;28;19915;-45
2023/11/19 09:36:19;;;;;;;;;;;;;;;;;;5055246;28;19918;-45
2023/11/19 09:38:45;;;;;;;;;;;;;;;;;;5053694;28;19908;-46
2023/11/19 09:41:13;;;;;;;;;;;;;;;;;;5054692;28;19995;-48
2023/11/19 09:43:39;;;;;;;;;;;;;;;;;;5054421;28;20329;-45
2023/11/19 09:46:06;;;;;;;;;;;;;;;;;;5054555;28;19911;-46
2023/11/19 09:48:32;;;;;;;;;;;;;;;;;;5055281;28;19966;-45
2023/11/19 09:50:58;;;;;;;;;;;;;;;;;;5052639;28;19955;-47
2023/11/19 09:53:25;;;;;;;;;;;;;;;;;;5053438;28;20325;-46
2023/11/19 09:55:51;;;;;;;;;;;;;;;;;;5054618;28;19919;-46
2023/11/19 09:58:17;;;;;;;;;;;;;;;;;;5054650;28;19944;-47
2023/11/19 10:00:43;;;;;;;;;;;;;;;;;;5054415;28;19916;-45
2023/11/19 10:03:09;;;;;;;;;;;;;;;;;;5054500;28;19909;-45
2023/11/19 10:05:35;;;;;;;;;;;;;;;;;;5054518;28;19908;-47
2023/11/19 10:08:01;;;;;;;;;;;;;;;;;;5054451;28;19904;-47
2023/11/19 10:10:27;;;;;;;;;;;;;;;;;;5054302;28;19908;-45
2023/11/19 10:12:53;;;;;;;;;;;;;;;;;;5054601;28;19970;-48
2023/11/19 10:15:19;;;;;;;;;;;;;;;;;;5052915;28;20366;-46
2023/11/19 10:17:45;;;;;;;;;;;;;;;;;;5053038;28;20287;-46
2023/11/19 10:20:12;;;;;;;;;;;;;;;;;;5054262;28;19944;-47
2023/11/19 10:22:38;;;;;;;;;;;;;;;;;;5054125;28;19921;-46
2023/11/19 10:25:04;;;;;;;;;;;;;;;;;;5054240;28;20371;-47
2023/11/19 10:27:30;;;;;;;;;;;;;;;;;;5036177;28;20030;-46
2023/11/19 10:29:56;;;;;;;;;;;;;;;;;;5054086;28;20339;-47
2023/11/19 10:32:22;;;;;;;;;;;;;;;;;;5053935;28;19912;-45
2023/11/19 10:34:48;;;;;;;;;;;;;;;;;;5052716;28;19919;-47
2023/11/19 10:37:14;;;;;;;;;;;;;;;;;;5054067;28;19908;-46
2023/11/19 10:39:40;;;;;;;;;;;;;;;;;;5053848;28;19908;-47
2023/11/19 10:42:06;;;;;;;;;;;;;;;;;;5053580;28;20370;-47
2023/11/19 10:44:36;;;;;;;;;;;;;;;;;;5053759;28;19912;-45
2023/11/19 10:47:02;;;;;;;;;;;;;;;;;;5053794;28;19959;-47
2023/11/19 10:49:28;;;;;;;;;;;;;;;;;;5053645;28;20394;-47
2023/11/19 10:51:54;;;;;;;;;;;;;;;;;;5052350;28;19909;-46
2023/11/19 10:54:20;;;;;;;;;;;;;;;;;;5053505;28;19905;-47
2023/11/19 10:56:46;;;;;;;;;;;;;;;;;;5053455;28;19913;-48
2023/11/19 10:59:12;;;;;;;;;;;;;;;;;;5053462;28;19934;-46
2023/11/19 11:01:38;;;;;;;;;;;;;;;;;;5051407;28;19923;-47
2023/11/19 11:04:04;;;;;;;;;;;;;;;;;;5051706;28;19909;-47
2023/11/19 11:06:30;;;;;;;;;;;;;;;;;;5052045;28;19911;-46
2023/11/19 11:08:56;;;;;;;;;;;;;;;;;;5052222;28;19963;-49
2023/11/19 11:11:23;;;;;;;;;;;;;;;;;;5052802;28;19912;-48
2023/11/19 11:13:54;;;;;;;;;;;;;;;;;;5053137;28;19908;-47
2023/11/19 11:16:21;;;;;;;;;;;;;;;;;;5053172;28;20244;-47
2023/11/19 11:18:49;;;;;;;;;;;;;;;;;;5051784;28;19954;-48
2023/11/19 11:21:18;;;;;;;;;;;;;;;;;;5051122;28;19908;-46
2023/11/19 11:23:44;;;;;;;;;;;;;;;;;;5052118;28;20576;-46
2023/11/19 11:26:10;;;;;;;;;;;;;;;;;;5052828;28;19946;-47
2023/11/19 11:28:36;;;;;;;;;;;;;;;;;;5045250;28;20299;-46
2023/11/19 11:31:03;;;;;;;;;;;;;;;;;;5014882;28;19944;-46
2023/11/19 11:33:29;;;;;;;;;;;;;;;;;;5015241;28;19905;-46
2023/11/19 11:35:57;;;;;;;;;;;;;;;;;;5032805;28;20324;-48
2023/11/19 11:38:23;;;;;;;;;;;;;;;;;;5032850;28;20307;-47
2023/11/19 11:40:49;;;;;;;;;;;;;;;;;;5040278;28;20229;-47
2023/11/19 11:43:15;;;;;;;;;;;;;;;;;;5034821;28;19944;-48
2023/11/19 11:45:42;;;;;;;;;;;;;;;;;;5052517;28;19908;-49
2023/11/19 11:48:09;;;;;;;;;;;;;;;;;;5034180;28;19904;-47
2023/11/19 11:50:36;;;;;;;;;;;;;;;;;;5052289;28;19917;-47
2023/11/19 11:53:05;;;;;;;;;;;;;;;;;;5052379;28;19978;-47
2023/11/19 11:55:32;;;;;;;;;;;;;;;;;;5052135;28;19920;-47
2023/11/19 11:57:59;;;;;;;;;;;;;;;;;;5034557;28;19916;-47
2023/11/19 12:00:25;;;;;;;;;;;;;;;;;;5049231;28;19912;-49
2023/11/19 12:02:54;;;;;;;;;;;;;;;;;;5045365;28;19908;-47
2023/11/19 12:05:20;;;;;;;;;;;;;;;;;;5036737;28;19923;-47
2023/11/19 12:07:46;;;;;;;;;;;;;;;;;;5048589;28;19927;-48
2023/11/19 12:10:12;;;;;;;;;;;;;;;;;;5049975;28;19913;-46
2023/11/19 12:12:40;;;;;;;;;;;;;;;;;;5031329;22;20417;-47
2023/11/19 12:15:06;;;;;;;;;;;;;;;;;;5012123;28;19909;-48
2023/11/19 12:17:32;;;;;;;;;;;;;;;;;;5011613;28;20000;-48
2023/11/19 12:19:58;;;;;;;;;;;;;;;;;;5014038;28;19917;-45
2023/11/19 12:22:24;;;;;;;;;;;;;;;;;;5018880;28;19909;-48
2023/11/19 12:24:51;;;;;;;;;;;;;;;;;;5028934;28;19999;-47
2023/11/19 12:27:17;;;;;;;;;;;;;;;;;;4993445;28;19936;-47
2023/11/19 12:29:47;;;;;;;;;;;;;;;;;;4993849;28;20086;-48
2023/11/19 12:32:13;;;;;;;;;;;;;;;;;;5002544;28;20027;-47
2023/11/19 12:34:39;;;;;;;;;;;;;;;;;;5029062;28;19948;-46
2023/11/19 12:37:05;;;;;;;;;;;;;;;;;;5010744;28;19920;-47
2023/11/19 12:39:31;;;;;;;;;;;;;;;;;;5010715;28;20401;-47
2023/11/19 12:41:59;;;;;;;;;;;;;;;;;;5013370;28;20004;-48
2023/11/19 12:44:25;;;;;;;;;;;;;;;;;;4994267;28;19909;-48
2023/11/19 12:46:51;;;;;;;;;;;;;;;;;;5010544;28;19909;-49
2023/11/19 12:49:18;;;;;;;;;;;;;;;;;;5010373;28;19967;-47
2023/11/19 12:51:44;;;;;;;;;;;;;;;;;;5025945;28;19909;-48
2023/11/19 12:54:10;;;;;;;;;;;;;;;;;;5030429;28;20351;-48
2023/11/19 12:56:37;;;;;;;;;;;;;;;;;;5031809;28;19920;-46
2023/11/19 12:59:03;;;;;;;;;;;;;;;;;;5014149;28;19931;-47
2023/11/19 13:01:30;;;;;;;;;;;;;;;;;;5013547;28;19909;-47
2023/11/19 13:03:56;;;;;;;;;;;;;;;;;;5027035;28;19944;-48
2023/11/19 13:06:22;;;;;;;;;;;;;;;;;;5012872;28;20295;-49
2023/11/19 13:08:50;;;;;;;;;;;;;;;;;;5013085;28;19932;-46
2023/11/19 13:11:16;;;;;;;;;;;;;;;;;;5015861;28;19913;-48
2023/11/19 13:13:42;;;;;;;;;;;;;;;;;;5012088;28;19913;-49
2023/11/19 13:16:09;;;;;;;;;;;;;;;;;;5011904;28;19917;-47
2023/11/19 13:18:35;;;;;;;;;;;;;;;;;;5011949;28;19909;-48
2023/11/19 13:21:01;;;;;;;;;;;;;;;;;;5012436;28;20387;-47
2023/11/19 13:23:27;;;;;;;;;;;;;;;;;;4994326;28;19917;-47
2023/11/19 13:25:53;;;;;;;;;;;;;;;;;;5013325;28;19932;-47
2023/11/19 13:28:19;;;;;;;;;;;;;;;;;;5015473;28;20399;-48
2023/11/19 13:30:45;;;;;;;;;;;;;;;;;;5016070;28;19940;-48
2023/11/19 13:33:12;;;;;;;;;;;;;;;;;;4997922;28;20028;-47
2023/11/19 13:35:40;;;;;;;;;;;;;;;;;;5016449;28;19917;-47
2023/11/19 13:38:08;;;;;;;;;;;;;;;;;;5032370;28;19909;-47
2023/11/19 13:40:34;;;;;;;;;;;;;;;;;;5012690;28;20004;-48
2023/11/19 13:43:00;;;;;;;;;;;;;;;;;;5035185;28;19909;-47
2023/11/19 13:45:26;;;;;;;;;;;;;;;;;;5035063;28;19916;-48
2023/11/19 13:47:52;;;;;;;;;;;;;;;;;;5016992;28;19915;-49
2023/11/19 13:50:18;;;;;;;;;;;;;;;;;;5033559;28;19909;-48
2023/11/19 13:52:46;;;;;;;;;;;;;;;;;;5023003;28;19909;-48
2023/11/19 13:55:12;;;;;;;;;;;;;;;;;;5027162;28;19916;-47
2023/11/19 13:57:38;;;;;;;;;;;;;;;;;;4995298;28;20061;-47
2023/11/19 14:00:11;;;;;;;;;;;;;;;;;;5013279;28;20299;-46
2023/11/19 14:02:37;;;;;;;;;;;;;;;;;;5010643;28;19921;-47
2023/11/19 14:05:03;;;;;;;;;;;;;;;;;;5001199;28;19913;-47
2023/11/19 14:07:29;;;;;;;;;;;;;;;;;;5019419;28;20004;-47
2023/11/19 14:09:56;;;;;;;;;;;;;;;;;;5013276;28;19909;-48
2023/11/19 14:12:23;;;;;;;;;;;;;;;;;;5012864;28;20338;-47
2023/11/19 14:14:49;;;;;;;;;;;;;;;;;;5003836;28;20380;-47
2023/11/19 14:17:15;;;;;;;;;;;;;;;;;;5033335;28;20425;-47
2023/11/19 14:19:42;;;;;;;;;;;;;;;;;;5032426;28;19909;-47
2023/11/19 14:22:08;;;;;;;;;;;;;;;;;;5032946;28;19912;-46
2023/11/19 14:24:34;;;;;;;;;;;;;;;;;;5033984;28;19909;-47
2023/11/19 14:27:00;;;;;;;;;;;;;;;;;;5034116;28;19916;-47
2023/11/19 14:29:26;;;;;;;;;;;;;;;;;;5034658;28;19909;-46
2023/11/19 14:31:55;;;;;;;;;;;;;;;;;;5022041;28;19914;-46
2023/11/19 14:34:22;;;;;;;;;;;;;;;;;;5014278;28;20004;-48
2023/11/19 14:36:48;;;;;;;;;;;;;;;;;;5014125;28;20391;-46
2023/11/19 14:39:14;;;;;;;;;;;;;;;;;;5013981;28;19909;-48
2023/11/19 14:41:40;;;;;;;;;;;;;;;;;;4996423;28;19932;-48
2023/11/19 14:44:06;;;;;;;;;;;;;;;;;;5014065;28;19932;-46
2023/11/19 14:46:32;;;;;;;;;;;;;;;;;;5013895;28;19913;-46
2023/11/19 14:48:58;;;;;;;;;;;;;;;;;;5013822;28;19913;-47
2023/11/19 14:51:24;;;;;;;;;;;;;;;;;;5013353;28;19910;-46
2023/11/19 14:53:50;;;;;;;;;;;;;;;;;;4996328;28;19948;-47
2023/11/19 14:56:17;;;;;;;;;;;;;;;;;;4996351;28;20311;-46
2023/11/19 14:58:44;;;;;;;;;;;;;;;;;;5013781;28;20403;-50
2023/11/19 15:01:10;;;;;;;;;;;;;;;;;;5013292;28;19916;-47
2023/11/19 15:03:36;;;;;;;;;;;;;;;;;;5013649;28;19909;-46
2023/11/19 15:06:02;;;;;;;;;;;;;;;;;;5013589;28;19909;-46
2023/11/19 15:08:30;;;;;;;;;;;;;;;;;;5013439;28;19967;-47
2023/11/19 15:10:58;;;;;;;;;;;;;;;;;;5013094;28;20283;-46
2023/11/19 15:13:24;;;;;;;;;;;;;;;;;;5000356;28;19909;-48
2023/11/19 15:15:52;;;;;;;;;;;;;;;;;;5026316;28;19967;-47
2023/11/19 15:18:19;;;;;;;;;;;;;;;;;;5029989;28;20375;-47
2023/11/19 15:20:47;;;;;;;;;;;;;;;;;;5010768;28;19962;-47
2023/11/19 15:23:13;;;;;;;;;;;;;;;;;;5015639;28;20308;-47
2023/11/19 15:25:39;;;;;;;;;;;;;;;;;;5013048;28;19920;-47
2023/11/19 15:28:05;;;;;;;;;;;;;;;;;;5026762;28;19913;-47
2023/11/19 15:30:31;;;;;;;;;;;;;;;;;;5016469;28;20276;-47
2023/11/19 15:32:57;;;;;;;;;;;;;;;;;;5031362;28;19948;-47
2023/11/19 15:35:23;;;;;;;;;;;;;;;;;;5027000;28;19960;-47
2023/11/19 15:37:49;;;;;;;;;;;;;;;;;;5023918;28;19913;-46
2023/11/19 15:40:15;;;;;;;;;;;;;;;;;;5010164;28;19951;-49
2023/11/19 15:42:43;;;;;;;;;;;;;;;;;;5012215;28;19913;-49
2023/11/19 15:45:09;;;;;;;;;;;;;;;;;;5007742;28;19917;-47
2023/11/19 15:47:35;;;;;;;;;;;;;;;;;;5027836;28;19909;-49
2023/11/19 15:50:01;;;;;;;;;;;;;;;;;;5019244;28;20427;-45
2023/11/19 15:52:29;;;;;;;;;;;;;;;;;;5016368;28;19969;-44
2023/11/19 15:54:56;;;;;;;;;;;;;;;;;;5011201;28;19940;-47
2023/11/19 15:57:22;;;;;;;;;;;;;;;;;;5012508;28;19917;-47
2023/11/19 15:59:48;;;;;;;;;;;;;;;;;;5012755;28;19913;-48
2023/11/19 16:02:15;;;;;;;;;;;;;;;;;;5002306;28;19909;-44
2023/11/19 16:04:41;;;;;;;;;;;;;;;;;;5012154;28;20434;-47
2023/11/19 16:07:07;;;;;;;;;;;;;;;;;;5012679;28;19916;-44
2023/11/19 16:09:33;;;;;;;;;;;;;;;;;;5012482;28;20272;-48
2023/11/19 16:11:59;;;;;;;;;;;;;;;;;;5012135;28;19920;-47
2023/11/19 16:14:25;;;;;;;;;;;;;;;;;;5012574;28;19916;-47
2023/11/19 16:16:52;;;;;;;;;;;;;;;;;;5012239;28;20008;-50
2023/11/19 16:19:18;;;;;;;;;;;;;;;;;;5012352;28;20403;-47
2023/11/19 16:21:44;;;;;;;;;;;;;;;;;;5012648;28;19909;-47
2023/11/19 16:24:11;;;;;;;;;;;;;;;;;;5032163;28;20007;-48
2023/11/19 16:26:37;;;;;;;;;;;;;;;;;;4998079;28;19909;-48
2023/11/19 16:29:03;;;;;;;;;;;;;;;;;;5014012;28;19909;-48
2023/11/19 16:31:29;;;;;;;;;;;;;;;;;;4998720;28;20448;-46
2023/11/19 16:33:55;;;;;;;;;;;;;;;;;;5013075;28;20323;-47
2023/11/19 16:36:22;;;;;;;;;;;;;;;;;;5018414;28;19913;-47
2023/11/19 16:38:48;;;;;;;;;;;;;;;;;;5011803;28;19925;-47
2023/11/19 16:41:16;;;;;;;;;;;;;;;;;;5029789;28;19916;-46
2023/11/19 16:43:42;;;;;;;;;;;;;;;;;;5016106;28;19909;-47
2023/11/19 16:46:08;;;;;;;;;;;;;;;;;;5025410;28;19920;-48
2023/11/19 16:48:34;;;;;;;;;;;;;;;;;;5015198;28;19956;-46